createdAt,value
2017-05-08T00:12:32.061Z,12.10
2017-05-08T00:17:34.543Z,12.10
2017-05-08T00:22:44.100Z,12.50
2017-05-08T00:25:14.588Z,12.40
2017-05-08T00:27:46.136Z,12.40
2017-05-08T00:32:56.429Z,12.30
2017-05-08T00:35:24.786Z,12.20
2017-05-08T00:37:54.865Z,12.20
2017-05-08T01:00:51.590Z,12.50
2017-05-08T01:03:20.156Z,12.70
2017-05-08T01:05:47.602Z,12.70
2017-05-08T01:13:32.286Z,12.90
2017-05-08T01:18:35.783Z,12.90
2017-05-08T01:23:38.016Z,13.00
2017-05-08T01:31:15.898Z,13.10
2017-05-08T01:33:49.913Z,13.20
2017-05-08T01:41:38.660Z,13.10
2017-05-08T01:44:10.432Z,13.10
2017-05-08T01:54:45.927Z,13.10
2017-05-08T01:57:15.420Z,13.20
2017-05-08T02:02:28.337Z,13.30
2017-05-08T02:20:45.468Z,13.20
2017-05-08T02:23:12.722Z,13.20
2017-05-08T02:28:13.823Z,13.10
2017-05-08T02:30:40.646Z,13.10
2017-05-08T02:33:10.248Z,12.90
2017-05-08T02:35:38.476Z,12.90
2017-05-08T02:38:08.336Z,12.90
2017-05-08T02:40:39.376Z,12.70
2017-05-08T02:45:37.470Z,12.70
2017-05-08T02:50:42.033Z,12.70
2017-05-08T02:53:09.700Z,12.70
2017-05-08T02:55:38.529Z,12.70
2017-05-08T03:00:38.401Z,12.50
2017-05-08T03:03:08.863Z,12.50
2017-05-08T03:05:36.233Z,12.50
2017-05-08T03:10:54.472Z,12.70
2017-05-08T03:13:22.858Z,12.50
2017-05-08T03:16:01.288Z,12.50
2017-05-08T03:18:36.802Z,12.50
2017-05-08T03:23:40.088Z,12.50
2017-05-08T03:36:30.815Z,12.60
2017-05-08T03:41:32.867Z,12.50
2017-05-08T03:44:06.884Z,12.50
2017-05-08T03:46:42.813Z,12.40
2017-05-08T03:49:12.637Z,12.30
2017-05-08T03:51:50.739Z,12.40
2017-05-08T03:54:20.324Z,12.20
2017-05-08T03:56:49.120Z,12.30
2017-05-08T04:04:23.786Z,12.20
2017-05-08T04:14:39.018Z,12.20
2017-05-08T04:30:29.137Z,12.40
2017-05-08T04:35:39.539Z,12.40
2017-05-08T04:45:57.726Z,12.50
2017-05-08T04:53:42.517Z,12.50
2017-05-08T05:01:16.970Z,12.70
2017-05-08T05:03:44.143Z,12.60
2017-05-08T05:06:13.735Z,12.70
2017-05-08T05:08:44.874Z,12.70
2017-05-08T05:11:30.967Z,12.70
2017-05-08T05:16:50.007Z,12.80
2017-05-08T05:19:22.361Z,12.70
2017-05-08T05:21:54.081Z,12.60
2017-05-08T05:26:56.181Z,12.80
2017-05-08T05:50:49.861Z,12.70
2017-05-08T06:11:58.304Z,13.00
2017-05-08T06:14:28.256Z,13.10
2017-05-08T06:22:23.716Z,13.10
2017-05-08T06:35:35.216Z,13.10
2017-05-08T06:46:44.312Z,13.00
2017-05-08T06:52:15.467Z,13.00
2017-05-08T06:54:42.228Z,13.00
2017-05-08T06:59:56.740Z,12.90
2017-05-08T07:05:43.351Z,12.90
2017-05-08T07:10:57.126Z,13.10
2017-05-08T07:13:34.625Z,13.20
2017-05-08T07:22:02.805Z,13.10
2017-05-08T07:24:32.483Z,13.20
2017-05-08T07:27:02.811Z,13.30
2017-05-08T07:29:32.216Z,13.30
2017-05-08T07:32:03.541Z,13.40
2017-05-08T07:34:32.815Z,13.40
2017-05-08T07:37:01.195Z,13.30
2017-05-08T07:39:28.510Z,13.30
2017-05-08T07:41:57.540Z,13.30
2017-05-08T07:44:25.276Z,13.30
2017-05-08T07:46:53.796Z,13.30
2017-05-08T07:49:23.300Z,13.30
2017-05-08T07:51:52.229Z,13.30
2017-05-08T07:54:20.475Z,13.30
2017-05-08T07:56:49.848Z,13.30
2017-05-08T07:59:17.700Z,13.40
2017-05-08T08:01:44.301Z,13.40
2017-05-08T08:04:13.814Z,13.40
2017-05-08T08:06:42.352Z,13.30
2017-05-08T08:09:12.224Z,13.30
2017-05-08T08:11:41.757Z,13.30
2017-05-08T08:14:11.818Z,13.40
2017-05-08T08:16:42.801Z,13.40
2017-05-08T08:19:13.886Z,13.40
2017-05-08T08:21:44.004Z,13.30
2017-05-08T08:24:12.172Z,13.30
2017-05-08T08:26:40.266Z,13.20
2017-05-08T08:29:08.748Z,13.20
2017-05-08T08:31:37.414Z,13.30
2017-05-08T08:34:05.873Z,13.20
2017-05-08T08:36:36.669Z,13.30
2017-05-08T08:39:08.389Z,13.40
2017-05-08T08:41:35.693Z,13.40
2017-05-08T08:44:02.688Z,13.50
2017-05-08T08:46:33.151Z,13.50
2017-05-08T08:49:00.817Z,13.60
2017-05-08T08:51:31.112Z,13.80
2017-05-08T08:53:57.881Z,13.90
2017-05-08T08:56:26.225Z,13.80
2017-05-08T08:58:54.265Z,14.00
2017-05-08T09:01:23.231Z,14.00
2017-05-08T09:03:53.801Z,14.00
2017-05-08T09:06:22.872Z,13.80
2017-05-08T09:08:49.939Z,13.80
2017-05-08T09:11:20.209Z,13.90
2017-05-08T09:13:48.242Z,14.00
2017-05-08T09:16:38.949Z,14.10
2017-05-08T09:19:15.923Z,14.10
2017-05-08T09:24:30.215Z,14.20
2017-05-08T09:27:05.938Z,14.30
2017-05-08T09:29:39.511Z,14.30
2017-05-08T09:32:11.482Z,14.20
2017-05-08T09:34:39.118Z,14.20
2017-05-08T09:37:09.396Z,14.10
2017-05-08T09:39:38.971Z,14.10
2017-05-08T09:42:12.658Z,14.00
2017-05-08T09:44:43.807Z,13.90
2017-05-08T09:47:12.014Z,14.00
2017-05-08T09:49:43.913Z,13.80
2017-05-08T09:52:13.258Z,13.90
2017-05-08T09:54:45.466Z,13.90
2017-05-08T09:57:15.682Z,13.80
2017-05-08T09:59:45.411Z,13.80
2017-05-08T10:02:14.800Z,13.70
2017-05-08T10:04:42.112Z,13.70
2017-05-08T10:07:11.909Z,13.70
2017-05-08T10:09:42.789Z,13.70
2017-05-08T10:12:09.731Z,13.70
2017-05-08T10:14:38.315Z,13.60
2017-05-08T10:17:07.367Z,13.60
2017-05-08T10:19:37.036Z,13.70
2017-05-08T10:22:05.310Z,13.70
2017-05-08T10:24:34.596Z,13.60
2017-05-08T10:27:12.645Z,13.60
2017-05-08T10:29:41.146Z,13.60
2017-05-08T10:32:10.173Z,13.60
2017-05-08T10:34:49.412Z,13.60
2017-05-08T10:40:03.018Z,13.80
2017-05-08T10:42:31.393Z,13.80
2017-05-08T10:44:58.155Z,13.70
2017-05-08T10:47:26.967Z,13.60
2017-05-08T10:49:55.098Z,13.60
2017-05-08T10:52:25.177Z,13.60
2017-05-08T10:54:53.321Z,13.60
2017-05-08T10:59:54.003Z,13.60
2017-05-08T11:02:22.042Z,13.50
2017-05-08T11:07:24.135Z,13.70
2017-05-08T11:15:10.133Z,13.90
2017-05-08T11:20:13.448Z,14.10
2017-05-08T11:22:41.294Z,14.30
2017-05-08T11:25:17.796Z,14.30
2017-05-08T11:27:48.241Z,14.30
2017-05-08T11:33:16.202Z,14.10
2017-05-08T11:35:51.833Z,14.00
2017-05-08T12:06:09.194Z,13.70
2017-05-08T12:08:42.889Z,13.80
2017-05-08T12:11:11.105Z,13.70
2017-05-08T12:13:39.665Z,13.80
2017-05-08T12:16:07.643Z,13.70
2017-05-08T12:18:35.826Z,13.80
2017-05-08T12:21:08.334Z,13.80
2017-05-08T12:23:38.658Z,13.80
2017-05-08T12:26:07.164Z,13.80
2017-05-08T12:28:36.989Z,13.70
2017-05-08T12:31:06.866Z,13.80
2017-05-08T12:33:36.762Z,13.90
2017-05-08T12:36:06.334Z,14.00
2017-05-08T12:38:33.599Z,14.00
2017-05-08T12:41:00.950Z,14.00
2017-05-08T12:43:29.221Z,14.00
2017-05-08T12:45:58.308Z,13.90
2017-05-08T12:48:26.990Z,13.90
2017-05-08T12:50:56.449Z,13.90
2017-05-08T12:53:25.781Z,13.90
2017-05-08T12:55:53.504Z,13.70
2017-05-08T12:58:22.035Z,13.70
2017-05-08T13:00:50.045Z,13.70
2017-05-08T13:03:19.125Z,13.70
2017-05-08T13:05:48.995Z,13.60
2017-05-08T13:08:15.416Z,13.60
2017-05-08T13:10:43.373Z,13.60
2017-05-08T13:13:12.212Z,13.60
2017-05-08T13:15:41.319Z,13.50
2017-05-08T13:18:09.385Z,13.60
2017-05-08T13:20:39.130Z,13.50
2017-05-08T13:23:05.931Z,13.40
2017-05-08T13:25:33.129Z,13.30
2017-05-08T13:28:02.564Z,13.30
2017-05-08T13:33:05.718Z,13.30
2017-05-08T13:35:33.938Z,13.30
2017-05-08T13:38:00.745Z,13.00
2017-05-08T13:40:27.248Z,13.00
2017-05-08T13:42:54.036Z,13.10
2017-05-08T13:45:21.437Z,13.20
2017-05-08T13:48:10.260Z,13.20
2017-05-08T13:53:52.806Z,13.10
2017-05-08T14:54:25.881Z,12.20
2017-05-08T14:57:03.070Z,12.20
2017-05-08T14:59:33.572Z,12.20
2017-05-08T15:17:11.412Z,12.30
2017-05-08T15:19:40.401Z,12.20
2017-05-08T15:22:08.692Z,12.20
2017-05-08T15:24:38.058Z,12.10
2017-05-08T15:27:06.647Z,12.10
2017-05-08T15:29:34.039Z,11.90
2017-05-08T15:42:22.548Z,11.90
2017-05-08T15:50:00.771Z,11.80
2017-05-08T15:52:30.950Z,11.80
2017-05-08T15:55:09.105Z,11.90
2017-05-08T15:57:49.133Z,11.80
2017-05-08T16:00:16.546Z,11.70
2017-05-08T16:02:45.564Z,11.70
2017-05-08T16:05:12.636Z,11.70
2017-05-08T16:10:26.871Z,11.60
2017-05-08T16:13:16.861Z,11.60
2017-05-08T16:18:19.401Z,11.40
2017-05-08T16:20:47.682Z,11.40
2017-05-08T16:23:16.719Z,11.40
2017-05-08T16:28:18.770Z,11.50
2017-05-08T16:35:59.216Z,11.50
2017-05-08T16:38:27.951Z,11.50
2017-05-08T16:40:59.002Z,11.50
2017-05-08T16:43:27.960Z,11.50
2017-05-08T16:45:59.903Z,11.50
2017-05-08T16:48:28.948Z,11.50
2017-05-08T16:59:45.292Z,11.40
2017-05-08T17:02:15.495Z,11.40
2017-05-08T17:11:33.321Z,11.30
2017-05-08T17:16:48.793Z,11.40
2017-05-08T17:22:18.054Z,11.50
2017-05-08T17:30:03.489Z,11.60
2017-05-08T17:35:41.060Z,11.60
2017-05-08T17:38:12.286Z,11.50
2017-05-08T17:40:48.757Z,11.60
2017-05-08T17:48:39.837Z,11.60
2017-05-08T17:51:09.440Z,11.40
2017-05-08T17:56:13.988Z,11.50
2017-05-08T17:58:49.103Z,11.40
2017-05-08T18:01:19.126Z,11.40
2017-05-08T18:03:58.430Z,11.50
2017-05-08T18:06:26.914Z,11.40
2017-05-08T18:08:55.196Z,11.40
2017-05-08T18:11:30.971Z,11.40
2017-05-08T18:13:57.852Z,11.40
2017-05-08T18:18:58.552Z,11.50
2017-05-08T18:21:30.535Z,11.60
2017-05-08T18:24:03.190Z,11.70
2017-05-08T18:26:31.018Z,11.70
2017-05-08T18:28:57.498Z,11.50
2017-05-08T18:31:24.028Z,11.50
2017-05-08T18:33:50.465Z,11.40
2017-05-08T18:36:21.209Z,11.40
2017-05-08T18:38:49.202Z,11.50
2017-05-08T18:41:19.874Z,11.50
2017-05-08T18:43:47.432Z,11.90
2017-05-08T18:46:14.845Z,11.90
2017-05-08T18:48:42.834Z,12.10
2017-05-08T18:51:11.275Z,11.90
2017-05-08T18:53:38.975Z,11.90
2017-05-08T18:56:06.693Z,11.90
2017-05-08T19:01:09.345Z,11.70
2017-05-08T19:03:36.219Z,11.70
2017-05-08T19:06:03.632Z,11.70
2017-05-08T19:08:32.358Z,11.80
2017-05-08T19:10:59.547Z,11.90
2017-05-08T19:13:26.179Z,11.90
2017-05-08T19:15:56.011Z,12.10
2017-05-08T19:18:23.603Z,12.00
2017-05-08T19:20:50.895Z,12.00
2017-05-08T19:23:18.834Z,12.00
2017-05-08T19:25:45.809Z,12.00
2017-05-08T19:28:14.542Z,11.70
2017-05-08T19:30:42.669Z,11.70
2017-05-08T19:33:10.157Z,11.50
2017-05-08T19:35:37.582Z,11.50
2017-05-08T19:38:05.014Z,11.40
2017-05-08T19:40:31.921Z,11.30
2017-05-08T19:42:59.894Z,11.30
2017-05-08T19:45:26.777Z,11.30
2017-05-08T19:47:53.577Z,11.30
2017-05-08T19:50:21.260Z,11.20
2017-05-08T19:52:48.619Z,11.10
2017-05-08T19:55:16.090Z,11.30
2017-05-08T19:57:43.341Z,11.30
2017-05-08T20:00:10.477Z,11.40
2017-05-08T20:02:37.789Z,11.40
2017-05-08T20:05:04.612Z,11.40
2017-05-08T20:07:32.160Z,11.30
2017-05-08T20:09:59.365Z,11.20
2017-05-08T20:12:26.631Z,11.10
2017-05-08T20:14:53.599Z,11.10
2017-05-08T20:17:20.890Z,11.30
2017-05-08T20:19:47.719Z,11.30
2017-05-08T20:22:14.724Z,11.50
2017-05-08T20:24:41.407Z,11.50
2017-05-08T20:27:08.580Z,11.60
2017-05-08T20:29:35.907Z,11.80
2017-05-08T20:32:03.057Z,11.60
2017-05-08T20:34:32.303Z,11.80
2017-05-08T20:37:00.813Z,11.80
2017-05-08T20:39:28.161Z,11.90
2017-05-08T20:41:55.899Z,11.80
2017-05-08T20:44:25.010Z,11.80
2017-05-08T20:46:53.742Z,11.90
2017-05-08T20:49:22.153Z,11.90
2017-05-08T20:51:49.634Z,11.70
2017-05-08T20:54:23.736Z,11.70
2017-05-08T20:56:51.909Z,11.70
2017-05-08T20:59:22.372Z,11.70
2017-05-08T21:02:04.744Z,11.70
2017-05-08T21:04:33.899Z,11.60
2017-05-08T21:07:05.090Z,11.50
2017-05-08T21:09:35.533Z,11.60
2017-05-08T21:12:04.582Z,11.60
2017-05-08T21:14:32.231Z,11.60
2017-05-08T21:17:08.440Z,11.60
2017-05-08T21:20:26.819Z,11.40
2017-05-08T21:22:56.757Z,11.10
2017-05-08T21:25:29.563Z,11.00
2017-05-08T21:27:56.041Z,11.00
2017-05-08T21:30:22.980Z,10.80
2017-05-08T21:32:49.739Z,10.80
2017-05-08T21:35:16.628Z,10.90
2017-05-08T21:37:45.111Z,11.00
2017-05-08T21:42:47.120Z,11.10
2017-05-08T21:45:18.931Z,11.00
2017-05-08T21:47:46.412Z,11.00
2017-05-08T21:50:17.491Z,11.00
2017-05-08T21:52:45.941Z,11.00
2017-05-08T21:55:20.222Z,11.20
2017-05-08T21:57:49.310Z,11.20
2017-05-08T22:00:19.060Z,11.20
2017-05-08T22:02:54.580Z,11.20
2017-05-08T22:05:26.789Z,11.30
2017-05-08T22:07:56.829Z,11.30
2017-05-08T22:10:24.755Z,11.30
2017-05-08T22:12:52.371Z,11.00
2017-05-08T22:15:19.573Z,11.10
2017-05-08T22:17:47.336Z,11.20
2017-05-08T22:20:14.516Z,11.10
2017-05-08T22:22:42.217Z,11.20
2017-05-08T22:25:09.934Z,11.10
2017-05-08T22:27:36.720Z,11.10
2017-05-08T22:30:03.930Z,11.10
2017-05-08T22:32:32.894Z,11.10
2017-05-08T22:34:59.679Z,11.00
2017-05-08T22:37:26.673Z,11.00
2017-05-08T22:39:53.994Z,11.00
2017-05-08T22:42:21.814Z,10.90
2017-05-08T22:44:49.208Z,11.00
2017-05-08T22:47:16.232Z,11.00
2017-05-08T22:49:43.357Z,10.90
2017-05-08T22:52:10.315Z,10.80
2017-05-08T22:54:37.106Z,10.90
2017-05-08T22:57:04.756Z,10.90
2017-05-08T22:59:34.234Z,11.00
2017-05-08T23:02:02.176Z,11.00
2017-05-08T23:04:29.884Z,10.90
2017-05-08T23:06:58.123Z,10.90
2017-05-08T23:09:25.515Z,10.90
2017-05-08T23:11:51.982Z,10.80
2017-05-08T23:14:19.134Z,10.80
2017-05-08T23:16:46.723Z,10.80
2017-05-08T23:19:14.413Z,10.90
2017-05-08T23:21:43.316Z,10.80
2017-05-08T23:24:10.654Z,10.80
2017-05-08T23:26:40.596Z,10.90
2017-05-08T23:29:07.708Z,10.80
2017-05-08T23:31:34.587Z,10.80
2017-05-08T23:34:01.703Z,10.80
2017-05-08T23:36:28.511Z,10.80
2017-05-08T23:38:55.252Z,10.50
2017-05-08T23:41:22.023Z,10.50
2017-05-08T23:43:48.752Z,10.60
2017-05-08T23:46:15.814Z,10.70
2017-05-08T23:48:42.541Z,10.70
2017-05-08T23:51:09.269Z,10.70
2017-05-08T23:53:36.325Z,10.50
2017-05-08T23:56:03.376Z,10.40
2017-05-08T23:58:30.177Z,10.40
